Denver, Colorado
Traffic Map
Current Weather Conditions
Denver, Colorado
Broken Clouds
Broken Clouds
17°
Feels Like: 17°
Wind Chill: 16° Ceiling: 12000
Heat Index: 16° Visibility: 10mi
Dew Point: Wind: 13mph
Humidity: 50% Direction: 90° (E)
Pressure: 30.01in Gusts: 22mph
Raw Report DataKBKF 302358Z 09011G19KT 10SM SCT070 BKN120 BKN200 17/06 A3001 RMK AO2A SLP116 P0000 60000 T01650061 10252 20164 50013
Traffic Incident Summary
Active as of:
Severity:
Category:
InformationThere was an issue retrieving the traffic information for this location. Please try a different location or try again shortly.
Advertisements
Track Severe Weather on mobile